sensor_id;sensor_type;location;lat;lon;timestamp;pressure;altitude;pressure_sealevel;temperature;humidity
29385;BME280;16367;48.736;9.218;2022-12-07T00:01:19;-23262.72;;;2.98;100.00
29385;BME280;16367;48.736;9.218;2022-12-07T00:03:22;-23264.63;;;3.04;100.00
29385;BME280;16367;48.736;9.218;2022-12-07T00:05:25;-23267.00;;;3.12;100.00
29385;BME280;16367;48.736;9.218;2022-12-07T00:07:27;-23267.66;;;3.14;100.00
29385;BME280;16367;48.736;9.218;2022-12-07T00:09:30;-23268.13;;;3.15;100.00
29385;BME280;16367;48.736;9.218;2022-12-07T00:11:33;-23265.25;;;3.06;100.00
29385;BME280;16367;48.736;9.218;2022-12-07T00:13:37;-23264.31;;;3.03;100.00
29385;BME280;16367;48.736;9.218;2022-12-07T00:15:40;-23265.75;;;3.08;100.00
29385;BME280;16367;48.736;9.218;2022-12-07T00:17:44;-23262.22;;;2.96;100.00
29385;BME280;16367;48.736;9.218;2022-12-07T00:19:46;-23264.31;;;3.03;100.00
29385;BME280;16367;48.736;9.218;2022-12-07T00:21:49;-23264.31;;;3.03;100.00
29385;BME280;16367;48.736;9.218;2022-12-07T00:23:53;-23262.41;;;2.97;100.00
29385;BME280;16367;48.736;9.218;2022-12-07T00:25:56;-23263.03;;;2.99;100.00
29385;BME280;16367;48.736;9.218;2022-12-07T00:27:58;-23261.59;;;2.94;100.00
29385;BME280;16367;48.736;9.218;2022-12-07T00:30:01;-23265.91;;;3.08;100.00
29385;BME280;16367;48.736;9.218;2022-12-07T00:32:04;-23265.25;;;3.06;100.00
29385;BME280;16367;48.736;9.218;2022-12-07T00:34:12;-23268.13;;;3.15;100.00
29385;BME280;16367;48.736;9.218;2022-12-07T00:36:18;-23264.94;;;3.05;100.00
29385;BME280;16367;48.736;9.218;2022-12-07T00:38:28;-23263.34;;;3.00;100.00
29385;BME280;16367;48.736;9.218;2022-12-07T00:40:31;-23267.50;;;3.13;100.00
29385;BME280;16367;48.736;9.218;2022-12-07T00:42:34;-23266.69;;;3.11;100.00
29385;BME280;16367;48.736;9.218;2022-12-07T00:44:36;-23268.44;;;3.16;100.00
29385;BME280;16367;48.736;9.218;2022-12-07T00:46:39;-23266.38;;;3.10;100.00
29385;BME280;16367;48.736;9.218;2022-12-07T00:48:42;-23264.94;;;3.05;100.00
29385;BME280;16367;48.736;9.218;2022-12-07T00:50:46;-23264.31;;;3.03;100.00
29385;BME280;16367;48.736;9.218;2022-12-07T00:52:49;-23266.22;;;3.09;100.00
29385;BME280;16367;48.736;9.218;2022-12-07T00:54:52;-23261.75;;;2.95;100.00
29385;BME280;16367;48.736;9.218;2022-12-07T00:56:54;-23264.31;;;3.03;100.00
29385;BME280;16367;48.736;9.218;2022-12-07T00:58:58;-23264.00;;;3.02;100.00
29385;BME280;16367;48.736;9.218;2022-12-07T01:01:03;-23266.22;;;3.09;100.00
29385;BME280;16367;48.736;9.218;2022-12-07T01:03:07;-23266.69;;;3.11;100.00
29385;BME280;16367;48.736;9.218;2022-12-07T01:05:10;-23258.88;;;2.86;100.00
29385;BME280;16367;48.736;9.218;2022-12-07T01:07:15;-23261.44;;;2.94;100.00
29385;BME280;16367;48.736;9.218;2022-12-07T01:09:17;-23259.53;;;2.88;100.00
29385;BME280;16367;48.736;9.218;2022-12-07T01:11:22;-23259.22;;;2.87;100.00
29385;BME280;16367;48.736;9.218;2022-12-07T01:13:24;-23261.75;;;2.95;100.00
29385;BME280;16367;48.736;9.218;2022-12-07T01:15:27;-23256.00;;;2.77;100.00
29385;BME280;16367;48.736;9.218;2022-12-07T01:17:30;-23254.91;;;2.73;100.00
29385;BME280;16367;48.736;9.218;2022-12-07T01:19:32;-23255.69;;;2.76;100.00
29385;BME280;16367;48.736;9.218;2022-12-07T01:21:35;-23255.69;;;2.76;100.00
29385;BME280;16367;48.736;9.218;2022-12-07T01:23:41;-23255.88;;;2.76;100.00
29385;BME280;16367;48.736;9.218;2022-12-07T01:25:44;-23257.28;;;2.81;100.00
29385;BME280;16367;48.736;9.218;2022-12-07T01:27:47;-23254.59;;;2.72;100.00
29385;BME280;16367;48.736;9.218;2022-12-07T01:29:50;-23251.22;;;2.62;100.00
29385;BME280;16367;48.736;9.218;2022-12-07T01:31:53;-23254.09;;;2.71;100.00
29385;BME280;16367;48.736;9.218;2022-12-07T01:33:58;-23250.75;;;2.60;100.00
29385;BME280;16367;48.736;9.218;2022-12-07T01:36:01;-23250.91;;;2.61;100.00
29385;BME280;16367;48.736;9.218;2022-12-07T01:38:04;-23252.66;;;2.66;100.00
29385;BME280;16367;48.736;9.218;2022-12-07T01:40:10;-23252.34;;;2.65;100.00
29385;BME280;16367;48.736;9.218;2022-12-07T01:42:13;-23251.22;;;2.62;100.00
29385;BME280;16367;48.736;9.218;2022-12-07T01:44:19;-23253.00;;;2.67;100.00
29385;BME280;16367;48.736;9.218;2022-12-07T01:46:22;-23250.91;;;2.61;100.00
29385;BME280;16367;48.736;9.218;2022-12-07T01:48:27;-23253.47;;;2.69;100.00
29385;BME280;16367;48.736;9.218;2022-12-07T01:50:31;-23252.03;;;2.64;100.00
29385;BME280;16367;48.736;9.218;2022-12-07T01:52:34;-23252.03;;;2.64;100.00
29385;BME280;16367;48.736;9.218;2022-12-07T01:54:38;-23248.38;;;2.53;100.00
29385;BME280;16367;48.736;9.218;2022-12-07T01:56:47;-23252.50;;;2.66;100.00
29385;BME280;16367;48.736;9.218;2022-12-07T01:58:51;-23255.06;;;2.74;100.00
29385;BME280;16367;48.736;9.218;2022-12-07T02:00:55;-23256.00;;;2.77;100.00
29385;BME280;16367;48.736;9.218;2022-12-07T02:03:03;-23257.78;;;2.82;100.00
29385;BME280;16367;48.736;9.218;2022-12-07T02:05:07;-23254.91;;;2.73;100.00
29385;BME280;16367;48.736;9.218;2022-12-07T02:07:10;-23255.06;;;2.74;100.00
29385;BME280;16367;48.736;9.218;2022-12-07T02:09:13;-23251.88;;;2.64;100.00
29385;BME280;16367;48.736;9.218;2022-12-07T02:11:16;-23254.91;;;2.73;100.00
29385;BME280;16367;48.736;9.218;2022-12-07T02:13:23;-23254.09;;;2.71;100.00
29385;BME280;16367;48.736;9.218;2022-12-07T02:15:34;-23256.97;;;2.80;100.00
29385;BME280;16367;48.736;9.218;2022-12-07T02:17:48;-23254.09;;;2.71;100.00
29385;BME280;16367;48.736;9.218;2022-12-07T02:20:11;-23252.66;;;2.66;100.00
29385;BME280;16367;48.736;9.218;2022-12-07T02:22:28;-23256.34;;;2.78;100.00
29385;BME280;16367;48.736;9.218;2022-12-07T02:24:48;-23253.16;;;2.68;100.00
29385;BME280;16367;48.736;9.218;2022-12-07T02:27:15;-23255.53;;;2.75;100.00
29385;BME280;16367;48.736;9.218;2022-12-07T02:29:24;-23256.97;;;2.80;100.00
29385;BME280;16367;48.736;9.218;2022-12-07T02:31:30;-23254.75;;;2.73;100.00
29385;BME280;16367;48.736;9.218;2022-12-07T02:33:36;-23256.97;;;2.80;100.00
29385;BME280;16367;48.736;9.218;2022-12-07T02:35:46;-23254.44;;;2.72;100.00
29385;BME280;16367;48.736;9.218;2022-12-07T02:37:59;-23256.97;;;2.80;100.00
29385;BME280;16367;48.736;9.218;2022-12-07T02:40:08;-23254.75;;;2.73;100.00
29385;BME280;16367;48.736;9.218;2022-12-07T02:42:15;-23254.09;;;2.71;100.00
29385;BME280;16367;48.736;9.218;2022-12-07T02:44:24;-23257.28;;;2.81;100.00
29385;BME280;16367;48.736;9.218;2022-12-07T02:46:31;-23250.44;;;2.59;100.00
29385;BME280;16367;48.736;9.218;2022-12-07T02:48:37;-23256.00;;;2.77;100.00
29385;BME280;16367;48.736;9.218;2022-12-07T02:50:44;-23250.91;;;2.61;100.00
29385;BME280;16367;48.736;9.218;2022-12-07T02:52:47;-23256.19;;;2.77;100.00
29385;BME280;16367;48.736;9.218;2022-12-07T02:54:50;-23250.28;;;2.59;100.00
29385;BME280;16367;48.736;9.218;2022-12-07T02:56:57;-23254.44;;;2.72;100.00
29385;BME280;16367;48.736;9.218;2022-12-07T02:59:11;-23255.38;;;2.75;100.00
29385;BME280;16367;48.736;9.218;2022-12-07T03:01:25;-23247.72;;;2.51;100.00
29385;BME280;16367;48.736;9.218;2022-12-07T03:03:31;-23253.47;;;2.69;100.00
29385;BME280;16367;48.736;9.218;2022-12-07T03:05:50;-23254.25;;;2.71;100.00
29385;BME280;16367;48.736;9.218;2022-12-07T03:08:02;-23246.78;;;2.48;100.00
29385;BME280;16367;48.736;9.218;2022-12-07T03:10:09;-23249.63;;;2.57;100.00
29385;BME280;16367;48.736;9.218;2022-12-07T03:12:16;-23251.88;;;2.64;100.00
29385;BME280;16367;48.736;9.218;2022-12-07T03:14:23;-23254.25;;;2.71;100.00
29385;BME280;16367;48.736;9.218;2022-12-07T03:16:33;-23250.13;;;2.58;100.00
29385;BME280;16367;48.736;9.218;2022-12-07T03:18:38;-23250.91;;;2.61;100.00
29385;BME280;16367;48.736;9.218;2022-12-07T03:20:44;-23250.59;;;2.60;100.00
29385;BME280;16367;48.736;9.218;2022-12-07T03:22:48;-23251.72;;;2.63;100.00
29385;BME280;16367;48.736;9.218;2022-12-07T03:24:54;-23252.50;;;2.66;100.00
29385;BME280;16367;48.736;9.218;2022-12-07T03:27:03;-23251.06;;;2.61;100.00
29385;BME280;16367;48.736;9.218;2022-12-07T03:29:12;-23249.63;;;2.57;100.00
29385;BME280;16367;48.736;9.218;2022-12-07T03:31:19;-23249.78;;;2.57;100.00
29385;BME280;16367;48.736;9.218;2022-12-07T03:33:25;-23252.19;;;2.65;100.00
29385;BME280;16367;48.736;9.218;2022-12-07T03:35:33;-23252.50;;;2.66;100.00
29385;BME280;16367;48.736;9.218;2022-12-07T03:37:40;-23250.59;;;2.60;100.00
29385;BME280;16367;48.736;9.218;2022-12-07T03:39:45;-23249.31;;;2.56;100.00
29385;BME280;16367;48.736;9.218;2022-12-07T03:41:49;-23243.56;;;2.38;100.00
29385;BME280;16367;48.736;9.218;2022-12-07T03:43:54;-23248.69;;;2.54;100.00
29385;BME280;16367;48.736;9.218;2022-12-07T03:46:01;-23252.34;;;2.65;100.00
29385;BME280;16367;48.736;9.218;2022-12-07T03:48:19;-23245.66;;;2.44;100.00
29385;BME280;16367;48.736;9.218;2022-12-07T03:50:31;-23250.59;;;2.60;100.00
29385;BME280;16367;48.736;9.218;2022-12-07T03:52:38;-23250.91;;;2.61;100.00
29385;BME280;16367;48.736;9.218;2022-12-07T03:54:45;-23250.75;;;2.60;100.00
29385;BME280;16367;48.736;9.218;2022-12-07T03:56:51;-23249.63;;;2.57;100.00
29385;BME280;16367;48.736;9.218;2022-12-07T03:58:55;-23249.63;;;2.57;100.00
29385;BME280;16367;48.736;9.218;2022-12-07T04:00:57;-23247.88;;;2.51;100.00
29385;BME280;16367;48.736;9.218;2022-12-07T04:03:00;-23246.13;;;2.46;100.00
29385;BME280;16367;48.736;9.218;2022-12-07T04:05:04;-23246.44;;;2.47;100.00
29385;BME280;16367;48.736;9.218;2022-12-07T04:07:08;-23243.09;;;2.36;100.00
29385;BME280;16367;48.736;9.218;2022-12-07T04:09:11;-23247.41;;;2.50;100.00
29385;BME280;16367;48.736;9.218;2022-12-07T04:11:15;-23249.47;;;2.56;100.00
29385;BME280;16367;48.736;9.218;2022-12-07T04:13:18;-23250.28;;;2.59;100.00
29385;BME280;16367;48.736;9.218;2022-12-07T04:15:21;-23245.19;;;2.43;100.00
29385;BME280;16367;48.736;9.218;2022-12-07T04:17:24;-23241.34;;;2.31;100.00
29385;BME280;16367;48.736;9.218;2022-12-07T04:19:28;-23242.94;;;2.36;100.00
29385;BME280;16367;48.736;9.218;2022-12-07T04:21:31;-23243.09;;;2.36;100.00
29385;BME280;16367;48.736;9.218;2022-12-07T04:23:35;-23240.06;;;2.26;100.00
29385;BME280;16367;48.736;9.218;2022-12-07T04:25:38;-23241.34;;;2.31;100.00
29385;BME280;16367;48.736;9.218;2022-12-07T04:27:40;-23243.41;;;2.37;100.00
29385;BME280;16367;48.736;9.218;2022-12-07T04:29:43;-23243.56;;;2.38;100.00
29385;BME280;16367;48.736;9.218;2022-12-07T04:31:46;-23239.75;;;2.25;100.00
29385;BME280;16367;48.736;9.218;2022-12-07T04:33:49;-23238.94;;;2.23;100.00
29385;BME280;16367;48.736;9.218;2022-12-07T04:35:51;-23237.03;;;2.17;100.00
29385;BME280;16367;48.736;9.218;2022-12-07T04:37:54;-23236.56;;;2.15;100.00
29385;BME280;16367;48.736;9.218;2022-12-07T04:39:58;-23236.88;;;2.16;100.00
29385;BME280;16367;48.736;9.218;2022-12-07T04:42:02;-23234.97;;;2.10;100.00
29385;BME280;16367;48.736;9.218;2022-12-07T04:44:05;-23233.69;;;2.06;100.00
29385;BME280;16367;48.736;9.218;2022-12-07T04:46:08;-23233.03;;;2.04;100.00
29385;BME280;16367;48.736;9.218;2022-12-07T04:48:11;-23235.13;;;2.11;100.00
29385;BME280;16367;48.736;9.218;2022-12-07T04:50:14;-23234.81;;;2.10;100.00
29385;BME280;16367;48.736;9.218;2022-12-07T04:52:16;-23235.13;;;2.11;100.00
29385;BME280;16367;48.736;9.218;2022-12-07T04:54:19;-23237.50;;;2.18;100.00
29385;BME280;16367;48.736;9.218;2022-12-07T04:56:24;-23238.47;;;2.21;100.00
29385;BME280;16367;48.736;9.218;2022-12-07T04:58:27;-23236.25;;;2.14;100.00
29385;BME280;16367;48.736;9.218;2022-12-07T05:00:29;-23237.84;;;2.19;100.00
29385;BME280;16367;48.736;9.218;2022-12-07T05:02:32;-23242.47;;;2.34;100.00
29385;BME280;16367;48.736;9.218;2022-12-07T05:04:35;-23245.97;;;2.45;100.00
29385;BME280;16367;48.736;9.218;2022-12-07T05:06:44;-23246.13;;;2.46;100.00
29385;BME280;16367;48.736;9.218;2022-12-07T05:08:47;-23245.81;;;2.45;99.76
29385;BME280;16367;48.736;9.218;2022-12-07T05:10:50;-23245.81;;;2.45;99.21
29385;BME280;16367;48.736;9.218;2022-12-07T05:12:54;-23249.31;;;2.56;99.47
29385;BME280;16367;48.736;9.218;2022-12-07T05:14:57;-23246.13;;;2.46;100.00
29385;BME280;16367;48.736;9.218;2022-12-07T05:16:59;-23246.78;;;2.48;100.00
29385;BME280;16367;48.736;9.218;2022-12-07T05:19:02;-23245.66;;;2.44;100.00
29385;BME280;16367;48.736;9.218;2022-12-07T05:21:05;-23250.59;;;2.60;99.84
29385;BME280;16367;48.736;9.218;2022-12-07T05:23:08;-23249.00;;;2.55;98.59
29385;BME280;16367;48.736;9.218;2022-12-07T05:25:11;-23247.72;;;2.51;99.46
29385;BME280;16367;48.736;9.218;2022-12-07T05:27:13;-23246.59;;;2.47;99.49
29385;BME280;16367;48.736;9.218;2022-12-07T05:29:17;-23248.03;;;2.52;99.57
29385;BME280;16367;48.736;9.218;2022-12-07T05:31:20;-23241.19;;;2.30;98.61
29385;BME280;16367;48.736;9.218;2022-12-07T05:33:23;-23238.47;;;2.21;100.00
29385;BME280;16367;48.736;9.218;2022-12-07T05:35:26;-23235.59;;;2.12;100.00
29385;BME280;16367;48.736;9.218;2022-12-07T05:37:29;-23237.50;;;2.18;100.00
29385;BME280;16367;48.736;9.218;2022-12-07T05:39:34;-23238.16;;;2.20;100.00
29385;BME280;16367;48.736;9.218;2022-12-07T05:41:37;-23242.94;;;2.36;100.00
29385;BME280;16367;48.736;9.218;2022-12-07T05:43:57;-23234.66;;;2.09;100.00
29385;BME280;16367;48.736;9.218;2022-12-07T05:46:01;-23232.41;;;2.02;100.00
29385;BME280;16367;48.736;9.218;2022-12-07T05:48:04;-23231.63;;;2.00;100.00
29385;BME280;16367;48.736;9.218;2022-12-07T05:50:07;-23227.63;;;1.87;100.00
29385;BME280;16367;48.736;9.218;2022-12-07T05:52:10;-23228.91;;;1.91;100.00
29385;BME280;16367;48.736;9.218;2022-12-07T05:54:12;-23226.81;;;1.85;100.00
29385;BME280;16367;48.736;9.218;2022-12-07T05:56:15;-23227.47;;;1.87;100.00
29385;BME280;16367;48.736;9.218;2022-12-07T05:58:18;-23225.88;;;1.82;100.00
29385;BME280;16367;48.736;9.218;2022-12-07T06:00:38;-23223.78;;;1.75;100.00
29385;BME280;16367;48.736;9.218;2022-12-07T06:02:42;-23221.88;;;1.69;100.00
29385;BME280;16367;48.736;9.218;2022-12-07T06:04:46;-23221.09;;;1.67;100.00
29385;BME280;16367;48.736;9.218;2022-12-07T06:06:49;-23223.78;;;1.75;100.00
29385;BME280;16367;48.736;9.218;2022-12-07T06:08:51;-23223.00;;;1.73;100.00
29385;BME280;16367;48.736;9.218;2022-12-07T06:10:54;-23221.56;;;1.68;100.00
29385;BME280;16367;48.736;9.218;2022-12-07T06:13:11;-23222.34;;;1.71;100.00
29385;BME280;16367;48.736;9.218;2022-12-07T06:15:14;-23223.47;;;1.74;100.00
29385;BME280;16367;48.736;9.218;2022-12-07T06:17:17;-23224.91;;;1.79;100.00
29385;BME280;16367;48.736;9.218;2022-12-07T06:19:21;-23225.38;;;1.80;100.00
29385;BME280;16367;48.736;9.218;2022-12-07T06:21:24;-23225.06;;;1.79;100.00
29385;BME280;16367;48.736;9.218;2022-12-07T06:23:28;-23227.78;;;1.88;100.00
29385;BME280;16367;48.736;9.218;2022-12-07T06:25:30;-23228.09;;;1.89;100.00
29385;BME280;16367;48.736;9.218;2022-12-07T06:27:34;-23227.94;;;1.88;100.00
29385;BME280;16367;48.736;9.218;2022-12-07T06:29:36;-23228.59;;;1.90;100.00
29385;BME280;16367;48.736;9.218;2022-12-07T06:31:39;-23228.91;;;1.91;100.00
29385;BME280;16367;48.736;9.218;2022-12-07T06:33:42;-23232.09;;;2.01;100.00
29385;BME280;16367;48.736;9.218;2022-12-07T06:35:46;-23235.91;;;2.13;100.00
29385;BME280;16367;48.736;9.218;2022-12-07T06:37:49;-23230.50;;;1.96;100.00
29385;BME280;16367;48.736;9.218;2022-12-07T06:39:52;-23231.78;;;2.00;100.00
29385;BME280;16367;48.736;9.218;2022-12-07T06:41:55;-23230.19;;;1.95;100.00
29385;BME280;16367;48.736;9.218;2022-12-07T06:43:57;-23230.66;;;1.97;100.00
29385;BME280;16367;48.736;9.218;2022-12-07T06:46:00;-23233.03;;;2.04;100.00
29385;BME280;16367;48.736;9.218;2022-12-07T06:48:03;-23230.81;;;1.97;100.00
29385;BME280;16367;48.736;9.218;2022-12-07T06:50:07;-23226.19;;;1.83;100.00
29385;BME280;16367;48.736;9.218;2022-12-07T06:52:11;-23219.16;;;1.61;100.00
29385;BME280;16367;48.736;9.218;2022-12-07T06:54:14;-23219.66;;;1.62;100.00
29385;BME280;16367;48.736;9.218;2022-12-07T06:56:17;-23215.66;;;1.49;100.00
29385;BME280;16367;48.736;9.218;2022-12-07T06:58:20;-23215.50;;;1.49;100.00
29385;BME280;16367;48.736;9.218;2022-12-07T07:00:23;-23215.97;;;1.50;100.00
29385;BME280;16367;48.736;9.218;2022-12-07T07:02:26;-23219.66;;;1.62;100.00
29385;BME280;16367;48.736;9.218;2022-12-07T07:04:29;-23219.81;;;1.63;100.00
29385;BME280;16367;48.736;9.218;2022-12-07T07:06:31;-23222.84;;;1.72;100.00
29385;BME280;16367;48.736;9.218;2022-12-07T07:08:36;-23225.06;;;1.79;100.00
29385;BME280;16367;48.736;9.218;2022-12-07T07:10:39;-23224.75;;;1.78;100.00
29385;BME280;16367;48.736;9.218;2022-12-07T07:12:41;-23223.78;;;1.75;100.00
29385;BME280;16367;48.736;9.218;2022-12-07T07:14:44;-23220.28;;;1.64;100.00
29385;BME280;16367;48.736;9.218;2022-12-07T07:16:47;-23223.47;;;1.74;100.00
29385;BME280;16367;48.736;9.218;2022-12-07T07:18:50;-23224.13;;;1.76;100.00
29385;BME280;16367;48.736;9.218;2022-12-07T07:20:53;-23221.56;;;1.68;100.00
29385;BME280;16367;48.736;9.218;2022-12-07T07:22:56;-23223.31;;;1.74;100.00
29385;BME280;16367;48.736;9.218;2022-12-07T07:25:00;-23224.44;;;1.77;100.00
29385;BME280;16367;48.736;9.218;2022-12-07T07:27:03;-23226.03;;;1.82;100.00
29385;BME280;16367;48.736;9.218;2022-12-07T07:29:05;-23232.72;;;2.03;100.00
29385;BME280;16367;48.736;9.218;2022-12-07T07:31:08;-23231.78;;;2.00;100.00
29385;BME280;16367;48.736;9.218;2022-12-07T07:33:11;-23229.84;;;1.94;100.00
29385;BME280;16367;48.736;9.218;2022-12-07T07:35:14;-23226.50;;;1.84;100.00
29385;BME280;16367;48.736;9.218;2022-12-07T07:37:18;-23227.00;;;1.85;100.00
29385;BME280;16367;48.736;9.218;2022-12-07T07:39:22;-23223.94;;;1.76;100.00
29385;BME280;16367;48.736;9.218;2022-12-07T07:41:26;-23223.31;;;1.74;100.00
29385;BME280;16367;48.736;9.218;2022-12-07T07:43:29;-23224.75;;;1.78;100.00
29385;BME280;16367;48.736;9.218;2022-12-07T07:45:32;-23225.38;;;1.80;100.00
29385;BME280;16367;48.736;9.218;2022-12-07T07:47:37;-23224.44;;;1.77;100.00
29385;BME280;16367;48.736;9.218;2022-12-07T07:49:40;-23222.03;;;1.70;100.00
29385;BME280;16367;48.736;9.218;2022-12-07T07:51:48;-23224.13;;;1.76;100.00
29385;BME280;16367;48.736;9.218;2022-12-07T07:53:51;-23222.34;;;1.71;100.00
29385;BME280;16367;48.736;9.218;2022-12-07T07:55:54;-23222.03;;;1.70;100.00
29385;BME280;16367;48.736;9.218;2022-12-07T07:57:59;-23227.63;;;1.87;100.00
29385;BME280;16367;48.736;9.218;2022-12-07T08:00:03;-23221.41;;;1.68;100.00
29385;BME280;16367;48.736;9.218;2022-12-07T08:02:07;-23220.59;;;1.65;100.00
29385;BME280;16367;48.736;9.218;2022-12-07T08:04:11;-23223.16;;;1.73;100.00
29385;BME280;16367;48.736;9.218;2022-12-07T08:06:14;-23222.03;;;1.70;100.00
29385;BME280;16367;48.736;9.218;2022-12-07T08:08:17;-23224.13;;;1.76;100.00
29385;BME280;16367;48.736;9.218;2022-12-07T08:10:20;-23224.13;;;1.76;100.00
29385;BME280;16367;48.736;9.218;2022-12-07T08:12:22;-23227.31;;;1.86;100.00
29385;BME280;16367;48.736;9.218;2022-12-07T08:14:27;-23223.00;;;1.73;100.00
29385;BME280;16367;48.736;9.218;2022-12-07T08:16:30;-23228.91;;;1.91;100.00
29385;BME280;16367;48.736;9.218;2022-12-07T08:18:34;-23227.63;;;1.87;100.00
29385;BME280;16367;48.736;9.218;2022-12-07T08:20:39;-23225.88;;;1.82;100.00
29385;BME280;16367;48.736;9.218;2022-12-07T08:22:41;-23228.25;;;1.89;100.00
29385;BME280;16367;48.736;9.218;2022-12-07T08:24:44;-23224.91;;;1.79;100.00
29385;BME280;16367;48.736;9.218;2022-12-07T08:26:47;-23227.47;;;1.87;100.00
29385;BME280;16367;48.736;9.218;2022-12-07T08:28:52;-23228.75;;;1.91;100.00
29385;BME280;16367;48.736;9.218;2022-12-07T08:31:00;-23226.81;;;1.85;100.00
29385;BME280;16367;48.736;9.218;2022-12-07T08:33:03;-23226.34;;;1.83;100.00
29385;BME280;16367;48.736;9.218;2022-12-07T08:35:06;-23225.88;;;1.82;100.00
29385;BME280;16367;48.736;9.218;2022-12-07T08:37:09;-23232.09;;;2.01;100.00
29385;BME280;16367;48.736;9.218;2022-12-07T08:39:12;-23229.53;;;1.93;100.00
29385;BME280;16367;48.736;9.218;2022-12-07T08:41:33;-23231.47;;;1.99;100.00
29385;BME280;16367;48.736;9.218;2022-12-07T08:43:36;-23232.56;;;2.03;100.00
29385;BME280;16367;48.736;9.218;2022-12-07T08:45:40;-23238.00;;;2.20;100.00
29385;BME280;16367;48.736;9.218;2022-12-07T08:47:47;-23238.94;;;2.23;100.00
29385;BME280;16367;48.736;9.218;2022-12-07T08:49:51;-23241.03;;;2.30;100.00
29385;BME280;16367;48.736;9.218;2022-12-07T08:51:55;-23242.94;;;2.36;100.00
29385;BME280;16367;48.736;9.218;2022-12-07T08:53:58;-23247.25;;;2.49;100.00
29385;BME280;16367;48.736;9.218;2022-12-07T08:56:03;-23246.44;;;2.47;100.00
29385;BME280;16367;48.736;9.218;2022-12-07T08:58:07;-23251.72;;;2.63;100.00
29385;BME280;16367;48.736;9.218;2022-12-07T09:00:11;-23246.44;;;2.47;100.00
29385;BME280;16367;48.736;9.218;2022-12-07T09:02:13;-23252.50;;;2.66;100.00
29385;BME280;16367;48.736;9.218;2022-12-07T09:04:17;-23251.06;;;2.61;100.00
29385;BME280;16367;48.736;9.218;2022-12-07T09:06:21;-23249.97;;;2.58;100.00
29385;BME280;16367;48.736;9.218;2022-12-07T09:08:27;-23249.31;;;2.56;100.00
29385;BME280;16367;48.736;9.218;2022-12-07T09:10:32;-23257.63;;;2.82;100.00
29385;BME280;16367;48.736;9.218;2022-12-07T09:12:35;-23255.22;;;2.74;100.00
29385;BME280;16367;48.736;9.218;2022-12-07T09:14:37;-23253.94;;;2.70;100.00
29385;BME280;16367;48.736;9.218;2022-12-07T09:16:40;-23254.44;;;2.72;100.00
29385;BME280;16367;48.736;9.218;2022-12-07T09:18:43;-23252.03;;;2.64;100.00
29385;BME280;16367;48.736;9.218;2022-12-07T09:20:47;-23259.84;;;2.89;100.00
29385;BME280;16367;48.736;9.218;2022-12-07T09:22:49;-23265.91;;;3.08;100.00
29385;BME280;16367;48.736;9.218;2022-12-07T09:24:52;-23258.25;;;2.84;100.00
29385;BME280;16367;48.736;9.218;2022-12-07T09:26:55;-23263.34;;;3.00;100.00
29385;BME280;16367;48.736;9.218;2022-12-07T09:28:57;-23260.81;;;2.92;100.00
29385;BME280;16367;48.736;9.218;2022-12-07T09:31:02;-23270.53;;;3.23;100.00
29385;BME280;16367;48.736;9.218;2022-12-07T09:33:24;-23263.34;;;3.00;100.00
29385;BME280;16367;48.736;9.218;2022-12-07T09:35:27;-23267.50;;;3.13;100.00
29385;BME280;16367;48.736;9.218;2022-12-07T09:37:31;-23265.44;;;3.07;100.00
29385;BME280;16367;48.736;9.218;2022-12-07T09:39:38;-23265.44;;;3.07;100.00
29385;BME280;16367;48.736;9.218;2022-12-07T09:41:50;-23281.53;;;3.57;100.00
29385;BME280;16367;48.736;9.218;2022-12-07T09:44:00;-23282.16;;;3.59;100.00
29385;BME280;16367;48.736;9.218;2022-12-07T09:46:05;-23276.75;;;3.42;99.66
29385;BME280;16367;48.736;9.218;2022-12-07T09:48:15;-23279.94;;;3.52;97.98
29385;BME280;16367;48.736;9.218;2022-12-07T09:50:21;-23271.31;;;3.25;98.76
29385;BME280;16367;48.736;9.218;2022-12-07T09:52:27;-23276.59;;;3.42;98.38
29385;BME280;16367;48.736;9.218;2022-12-07T09:54:41;-23276.75;;;3.42;98.75
29385;BME280;16367;48.736;9.218;2022-12-07T09:56:46;-23285.66;;;3.70;97.61
29385;BME280;16367;48.736;9.218;2022-12-07T09:58:50;-23278.97;;;3.49;96.76
29385;BME280;16367;48.736;9.218;2022-12-07T10:00:57;-23282.31;;;3.60;96.28
29385;BME280;16367;48.736;9.218;2022-12-07T10:03:02;-23284.88;;;3.68;96.06
29385;BME280;16367;48.736;9.218;2022-12-07T10:05:09;-23283.28;;;3.63;97.06
29385;BME280;16367;48.736;9.218;2022-12-07T10:07:21;-23282.81;;;3.61;95.16
29385;BME280;16367;48.736;9.218;2022-12-07T10:09:23;-23282.81;;;3.61;94.15
29385;BME280;16367;48.736;9.218;2022-12-07T10:11:29;-23287.41;;;3.76;93.15
29385;BME280;16367;48.736;9.218;2022-12-07T10:13:37;-23294.91;;;4.00;91.96
29385;BME280;16367;48.736;9.218;2022-12-07T10:15:46;-23300.16;;;4.16;91.37
29385;BME280;16367;48.736;9.218;2022-12-07T10:17:50;-23309.88;;;4.47;89.60
29385;BME280;16367;48.736;9.218;2022-12-07T10:20:08;-23300.97;;;4.19;89.18
29385;BME280;16367;48.736;9.218;2022-12-07T10:22:16;-23299.69;;;4.15;88.64
29385;BME280;16367;48.736;9.218;2022-12-07T10:24:21;-23300.97;;;4.19;89.70
29385;BME280;16367;48.736;9.218;2022-12-07T10:26:31;-23306.53;;;4.36;88.84
29385;BME280;16367;48.736;9.218;2022-12-07T10:28:36;-23309.09;;;4.44;87.24
29385;BME280;16367;48.736;9.218;2022-12-07T10:30:54;-23307.31;;;4.39;88.07
29385;BME280;16367;48.736;9.218;2022-12-07T10:33:00;-23310.50;;;4.49;87.17
29385;BME280;16367;48.736;9.218;2022-12-07T10:35:24;-23316.25;;;4.67;87.28
29385;BME280;16367;48.736;9.218;2022-12-07T10:37:28;-23297.94;;;4.09;88.46
29385;BME280;16367;48.736;9.218;2022-12-07T10:39:40;-23294.59;;;3.99;88.54
29385;BME280;16367;48.736;9.218;2022-12-07T10:41:56;-23301.91;;;4.22;89.07
29385;BME280;16367;48.736;9.218;2022-12-07T10:43:59;-23309.72;;;4.46;89.08
29385;BME280;16367;48.736;9.218;2022-12-07T10:46:19;-23296.97;;;4.06;88.81
29385;BME280;16367;48.736;9.218;2022-12-07T10:48:30;-23304.31;;;4.29;89.32
29385;BME280;16367;48.736;9.218;2022-12-07T10:51:00;-23307.81;;;4.40;88.36
29385;BME280;16367;48.736;9.218;2022-12-07T10:53:24;-23300.00;;;4.16;88.21
29385;BME280;16367;48.736;9.218;2022-12-07T10:55:41;-23300.63;;;4.18;88.54